Terminal Aerodrome Forecast
Issued by NWS King Salmon, AK

Home | Current Version | Previous Version | Text Only | Print | Product List | Glossary On
Versions: 1 2 3 4 5 6 7 8 9 10 11 12 13 14 15 16 17 18 19 20 21 22 23 24 25 26 27 28 29 30 31 32 33 34 35 36 37 38 39 40 41 42 43 44 45
000
FTAK31 PANC 290319 AAB
TAFAKN
TAF AMD
PAKN 290319Z 2903/2924 VRB04KT 6SM -RA BR SCT015 OVC022
      TEMPO 2903/2906 3SM -RA BR BKN015
     FM290600 34004KT P6SM -SHRASN SCT015 OVC025
     FM291200 25004KT P6SM BKN005 OVC015=

USA.gov is the U.S. government's official web portal to all federal, state and local government web resources and services.